PWSweather.com
Personal Weather Stations
Station Observations
NOCONAWX
Sherman Street, Nocona, TX 76255

Sherman StreetNocona, TX 76255

Lat: 33.7851771, Lon: -97.7248693

Elevation: 981

Station Type: Davis 6152

http://www.noconaweather.com

High Low Average
Temperature 47.4°F8.6°C 41.1°F5.1°C 43.8°F6.6°C
Dew Point 46.7°F8.2°C 39.5°F4.2°C 42.6°F5.9°C
Winds 6.0 mph 9.7 kmh Calm Calm 1.0 mph S1.6 kmh S
Wind Gusts 10.0 mph16.1 kmh -- 3.0 mph4.8 kmh
Humidity 100% 85% 95%
Pressure 30.18 in1022.0 mb 29.90 in1012.5 mb -
Precipitation 0.32 in8.1 mm - -
Hour Temp Dew Point Humidity Winds Wind Gusts Pressure Precip Precip Rate Daily Precip Total
12:00 AM 43.7°F6.5°C 39.5°F4.2°C 85% 2.0 mph NNW3.2 kmh NNW 5.0 mph8.0 kmh 30.14 in1020.7 mb 0.00 in0.0 mm 0.00 in/hr0.0 mm/hr 0.00 in0.0 mm
12:30 AM 43.4°F6.3°C 39.8°F4.3°C 87% Calm Calm 5.0 mph8.0 kmh 30.14 in1020.7 mb 0.00 in0.0 mm 0.00 in/hr0.0 mm/hr 0.00 in0.0 mm
01:00 AM 43.0°F6.1°C 40.3°F4.6°C 90% Calm Calm 1.0 mph1.6 kmh 30.13 in1020.3 mb 0.00 in0.0 mm 0.00 in/hr0.0 mm/hr 0.00 in0.0 mm
01:30 AM 42.8°F6.0°C 40.4°F4.7°C 91% 1.0 mph NNW1.6 kmh NNW 2.0 mph3.2 kmh 30.12 in1020.0 mb 0.00 in0.0 mm 0.00 in/hr0.0 mm/hr 0.00 in0.0 mm
02:00 AM 42.8°F6.0°C 40.6°F4.8°C 92% 1.0 mph NNW1.6 kmh NNW 3.0 mph4.8 kmh 30.13 in1020.3 mb 0.00 in0.0 mm 0.00 in/hr0.0 mm/hr 0.00 in0.0 mm
02:30 AM 42.7°F5.9°C 40.8°F4.9°C 93% 1.0 mph NNW1.6 kmh NNW 2.0 mph3.2 kmh 30.14 in1020.7 mb 0.00 in0.0 mm 0.00 in/hr0.0 mm/hr 0.00 in0.0 mm
03:00 AM 42.5°F5.8°C 40.9°F4.9°C 94% 1.0 mph NNW1.6 kmh NNW 3.0 mph4.8 kmh 30.14 in1020.7 mb 0.00 in0.0 mm 0.00 in/hr0.0 mm/hr 0.00 in0.0 mm
03:30 AM 42.2°F5.7°C 40.9°F4.9°C 95% 1.0 mph NNW1.6 kmh NNW 2.0 mph3.2 kmh 30.15 in1021.0 mb 0.00 in0.0 mm 0.00 in/hr0.0 mm/hr 0.00 in0.0 mm
04:00 AM 41.9°F5.5°C 40.8°F4.9°C 96% 2.0 mph NW3.2 kmh NW 5.0 mph8.0 kmh 30.14 in1020.7 mb 0.00 in0.0 mm 0.00 in/hr0.0 mm/hr 0.00 in0.0 mm
04:30 AM 41.4°F5.2°C 40.3°F4.6°C 96% 2.0 mph NNW3.2 kmh NNW 3.0 mph4.8 kmh 30.15 in1021.0 mb 0.00 in0.0 mm 0.00 in/hr0.0 mm/hr 0.00 in0.0 mm
05:00 AM 41.4°F5.2°C 40.6°F4.8°C 97% Calm Calm 3.0 mph4.8 kmh 30.14 in1020.7 mb 0.00 in0.0 mm 0.00 in/hr0.0 mm/hr 0.00 in0.0 mm
05:30 AM 41.1°F5.1°C 40.3°F4.6°C 97% 2.0 mph N3.2 kmh N 6.0 mph9.7 kmh 30.14 in1020.7 mb 0.00 in0.0 mm 0.00 in/hr0.0 mm/hr 0.00 in0.0 mm
06:00 AM 41.1°F5.1°C 40.3°F4.6°C 97% 2.0 mph N3.2 kmh N 3.0 mph4.8 kmh 30.15 in1021.0 mb 0.00 in0.0 mm 0.00 in/hr0.0 mm/hr 0.00 in0.0 mm
06:30 AM 41.2°F5.1°C 40.4°F4.7°C 97% 1.0 mph N1.6 kmh N 2.0 mph3.2 kmh 30.16 in1021.3 mb 0.00 in0.0 mm 0.00 in/hr0.0 mm/hr 0.00 in0.0 mm
07:00 AM 41.2°F5.1°C 40.4°F4.7°C 97% Calm Calm 3.0 mph4.8 kmh 30.17 in1021.7 mb 0.00 in0.0 mm 0.00 in/hr0.0 mm/hr 0.00 in0.0 mm
07:30 AM 41.4°F5.2°C 41.4°F5.2°C 100% Calm Calm 1.0 mph1.6 kmh 30.18 in1022.0 mb 0.00 in0.0 mm 0.00 in/hr0.0 mm/hr 0.00 in0.0 mm
08:00 AM 41.5°F5.3°C 41.5°F5.3°C 100% 1.0 mph N1.6 kmh N 2.0 mph3.2 kmh 30.18 in1022.0 mb 0.00 in0.0 mm 0.00 in/hr0.0 mm/hr 0.00 in0.0 mm
08:30 AM 41.6°F5.3°C 41.6°F5.3°C 100% 1.0 mph N1.6 kmh N 3.0 mph4.8 kmh 30.18 in1022.0 mb 0.00 in0.0 mm 0.00 in/hr0.0 mm/hr 0.00 in0.0 mm
09:00 AM 42.0°F5.6°C 42.0°F5.6°C 100% 1.0 mph N1.6 kmh N 2.0 mph3.2 kmh 30.17 in1021.7 mb 0.00 in0.0 mm 0.00 in/hr0.0 mm/hr 0.00 in0.0 mm
09:30 AM 42.6°F5.9°C 42.6°F5.9°C 100% Calm Calm 1.0 mph1.6 kmh 30.17 in1021.7 mb 0.00 in0.0 mm 0.00 in/hr0.0 mm/hr 0.00 in0.0 mm
10:00 AM 43.3°F6.3°C 42.5°F5.8°C 97% Calm Calm -- 30.17 in1021.7 mb 0.00 in0.0 mm 0.00 in/hr0.0 mm/hr 0.00 in0.0 mm
10:30 AM 44.5°F6.9°C 43.5°F6.4°C 96% 1.0 mph NE1.6 kmh NE 3.0 mph4.8 kmh 30.15 in1021.0 mb 0.00 in0.0 mm 0.00 in/hr0.0 mm/hr 0.00 in0.0 mm
11:00 AM 45.4°F7.4°C 43.8°F6.6°C 94% 2.0 mph ENE3.2 kmh ENE 3.0 mph4.8 kmh 30.12 in1020.0 mb 0.00 in0.0 mm 0.00 in/hr0.0 mm/hr 0.00 in0.0 mm
11:30 AM 45.5°F7.5°C 43.9°F6.6°C 94% 1.0 mph ENE1.6 kmh ENE 3.0 mph4.8 kmh 30.12 in1020.0 mb 0.00 in0.0 mm 0.00 in/hr0.0 mm/hr 0.00 in0.0 mm
12:00 PM 45.9°F7.7°C 44.5°F6.9°C 95% Calm Calm 1.0 mph1.6 kmh 30.10 in1019.3 mb 0.00 in0.0 mm 0.00 in/hr0.0 mm/hr 0.00 in0.0 mm
12:30 PM 46.4°F8.0°C 44.8°F7.1°C 94% 1.0 mph E1.6 kmh E 2.0 mph3.2 kmh 30.06 in1017.9 mb 0.00 in0.0 mm 0.00 in/hr0.0 mm/hr 0.00 in0.0 mm
01:00 PM 47.2°F8.4°C 45.6°F7.6°C 94% 2.0 mph E3.2 kmh E 5.0 mph8.0 kmh 30.02 in1016.6 mb 0.00 in0.0 mm 0.00 in/hr0.0 mm/hr 0.00 in0.0 mm
01:30 PM 47.3°F8.5°C 45.6°F7.6°C 94% 1.0 mph E1.6 kmh E 2.0 mph3.2 kmh 30.01 in1016.3 mb 0.00 in0.0 mm 0.00 in/hr0.0 mm/hr 0.00 in0.0 mm
02:00 PM 47.4°F8.6°C 46.0°F7.8°C 95% 2.0 mph E3.2 kmh E 3.0 mph4.8 kmh 30.01 in1016.3 mb 0.00 in0.0 mm 0.00 in/hr0.0 mm/hr 0.00 in0.0 mm
02:30 PM 47.0°F8.3°C 45.6°F7.6°C 95% 6.0 mph ESE9.7 kmh ESE 10.0 mph16.1 kmh 29.92 in1013.2 mb 0.00 in0.0 mm 0.00 in/hr0.0 mm/hr 0.00 in0.0 mm
03:00 PM 46.7°F8.2°C 45.6°F7.6°C 96% 2.0 mph NE3.2 kmh NE 6.0 mph9.7 kmh 29.95 in1014.2 mb 0.00 in0.0 mm 0.00 in/hr0.0 mm/hr 0.00 in0.0 mm
03:30 PM 46.7°F8.2°C 45.9°F7.7°C 97% 2.0 mph E3.2 kmh E 3.0 mph4.8 kmh 29.93 in1013.5 mb 0.00 in0.0 mm 0.00 in/hr0.0 mm/hr 0.00 in0.0 mm
04:00 PM 46.7°F8.2°C 45.9°F7.7°C 97% 2.0 mph N3.2 kmh N 3.0 mph4.8 kmh 29.93 in1013.5 mb 0.00 in0.0 mm 0.00 in/hr0.0 mm/hr 0.00 in0.0 mm
05:00 PM 46.7°F8.2°C 46.7°F8.2°C 100% 3.0 mph N4.8 kmh N 7.0 mph11.3 kmh 29.90 in1012.5 mb 0.00 in0.0 mm 0.00 in/hr0.0 mm/hr 0.00 in0.0 mm
05:30 PM 46.2°F7.9°C 46.2°F7.9°C 100% Calm Calm 3.0 mph4.8 kmh 29.91 in1012.9 mb 0.32 in8.1 mm 0.64 in/hr16.3 mm/hr 0.32 in8.1 mm
06:00 PM 45.3°F7.4°C 45.3°F7.4°C 100% 3.0 mph WNW4.8 kmh WNW 6.0 mph9.7 kmh 29.93 in1013.5 mb 0.14 in3.6 mm 0.00 in/hr0.0 mm/hr 0.44 in11.2 mm
07:30 PM 44.0°F6.7°C 44.0°F6.7°C 100% 2.0 mph NW3.2 kmh NW 5.0 mph8.0 kmh 29.98 in1015.2 mb 0.19 in4.8 mm 0.38 in/hr9.7 mm/hr 0.74 in18.8 mm
08:00 PM 43.8°F6.6°C 43.8°F6.6°C 100% 2.0 mph NW3.2 kmh NW 3.0 mph4.8 kmh 30.00 in1015.9 mb 0.00 in0.0 mm 0.00 in/hr0.0 mm/hr 0.74 in18.8 mm
08:30 PM 43.5°F6.4°C 43.5°F6.4°C 100% Calm Calm 3.0 mph4.8 kmh 30.00 in1015.9 mb 0.01 in0.3 mm 0.02 in/hr0.5 mm/hr 0.75 in19.1 mm
09:00 PM 43.7°F6.5°C 43.7°F6.5°C 100% Calm Calm 1.0 mph1.6 kmh 30.00 in1015.9 mb 0.00 in0.0 mm 0.00 in/hr0.0 mm/hr 0.75 in19.1 mm
09:30 PM 43.6°F6.4°C 43.6°F6.4°C 100% 2.0 mph NW3.2 kmh NW 5.0 mph8.0 kmh 30.00 in1015.9 mb 0.00 in0.0 mm 0.00 in/hr0.0 mm/hr 0.75 in19.1 mm
10:00 PM 43.8°F6.6°C 43.8°F6.6°C 100% 2.0 mph WSW3.2 kmh WSW 3.0 mph4.8 kmh 30.01 in1016.3 mb 0.00 in0.0 mm 0.00 in/hr0.0 mm/hr 0.75 in19.1 mm
10:30 PM 43.7°F6.5°C 43.7°F6.5°C 100% 2.0 mph WNW3.2 kmh WNW 6.0 mph9.7 kmh 30.00 in1015.9 mb 0.01 in0.3 mm 0.02 in/hr0.5 mm/hr 0.76 in19.3 mm
11:00 PM 43.7°F6.5°C 43.7°F6.5°C 100% 2.0 mph NW3.2 kmh NW 5.0 mph8.0 kmh 29.99 in1015.6 mb 0.00 in0.0 mm 0.00 in/hr0.0 mm/hr 0.76 in19.3 mm